Brooksville, Florida
Current Conditions -  °F | °C
As of 9:53 AM on Thursday 30 Oct 2014 (Local Time) from KBKV Reporting Station
Clear Clear  
Wind Chill: 75°   Ceiling: Unl
Heat Index: 75°   Visibility: 10mi
Dew Point: 66°   Wind: 6mph
Humidity: 73%   Direction: 50°NE
Pressure: 30"   Gusts: NA
Location:  28.55°N, 82.39°W
Report Text: KBKV 301353Z 05005KT 10SM CLR 24/19 A3000 RMK AO2 SLP159 T02390189
Loading
Personal Weather Stations






























Interactive Weather Map
Tropical Storm Tracking
New forecast layout! Learn more

10-Day Weather Forecast

Advertisements
Track Severe Weather on mobile